sensor_id;sensor_type;location;lat;lon;timestamp;P1;durP1;ratioP1;P2;durP2;ratioP2
4112;SDS011;2070;51.042;7.056;2023-04-08T00:00:27;55.97;;;20.73;;
4112;SDS011;2070;51.042;7.056;2023-04-08T00:02:53;53.60;;;21.50;;
4112;SDS011;2070;51.042;7.056;2023-04-08T00:05:18;74.03;;;24.40;;
4112;SDS011;2070;51.042;7.056;2023-04-08T00:07:43;53.07;;;23.20;;
4112;SDS011;2070;51.042;7.056;2023-04-08T00:10:08;55.00;;;21.40;;
4112;SDS011;2070;51.042;7.056;2023-04-08T00:12:34;48.80;;;21.57;;
4112;SDS011;2070;51.042;7.056;2023-04-08T00:14:59;51.20;;;20.10;;
4112;SDS011;2070;51.042;7.056;2023-04-08T00:17:24;52.07;;;22.30;;
4112;SDS011;2070;51.042;7.056;2023-04-08T00:19:51;67.13;;;22.30;;
4112;SDS011;2070;51.042;7.056;2023-04-08T00:22:16;60.47;;;22.80;;
4112;SDS011;2070;51.042;7.056;2023-04-08T00:24:42;51.17;;;22.70;;
4112;SDS011;2070;51.042;7.056;2023-04-08T00:27:07;67.50;;;23.87;;
4112;SDS011;2070;51.042;7.056;2023-04-08T00:29:32;75.87;;;22.87;;
4112;SDS011;2070;51.042;7.056;2023-04-08T00:31:57;71.23;;;24.30;;
4112;SDS011;2070;51.042;7.056;2023-04-08T00:34:22;61.73;;;21.80;;
4112;SDS011;2070;51.042;7.056;2023-04-08T00:36:48;81.07;;;24.40;;
4112;SDS011;2070;51.042;7.056;2023-04-08T00:39:13;65.37;;;22.50;;
4112;SDS011;2070;51.042;7.056;2023-04-08T00:41:38;63.57;;;24.20;;
4112;SDS011;2070;51.042;7.056;2023-04-08T00:44:04;68.63;;;25.73;;
4112;SDS011;2070;51.042;7.056;2023-04-08T00:46:30;82.57;;;26.00;;
4112;SDS011;2070;51.042;7.056;2023-04-08T00:48:55;43.77;;;21.07;;
4112;SDS011;2070;51.042;7.056;2023-04-08T00:51:20;64.30;;;22.53;;
4112;SDS011;2070;51.042;7.056;2023-04-08T00:53:46;62.03;;;24.60;;
4112;SDS011;2070;51.042;7.056;2023-04-08T00:56:11;68.97;;;23.97;;
4112;SDS011;2070;51.042;7.056;2023-04-08T00:58:36;55.47;;;23.60;;
4112;SDS011;2070;51.042;7.056;2023-04-08T01:01:06;64.90;;;22.23;;
4112;SDS011;2070;51.042;7.056;2023-04-08T01:08:29;53.23;;;22.87;;
4112;SDS011;2070;51.042;7.056;2023-04-08T01:10:57;51.33;;;22.30;;
4112;SDS011;2070;51.042;7.056;2023-04-08T01:13:22;63.13;;;22.60;;
4112;SDS011;2070;51.042;7.056;2023-04-08T01:15:50;50.50;;;22.20;;
4112;SDS011;2070;51.042;7.056;2023-04-08T01:18:15;60.50;;;22.70;;
4112;SDS011;2070;51.042;7.056;2023-04-08T01:20:41;58.37;;;23.13;;
4112;SDS011;2070;51.042;7.056;2023-04-08T01:23:17;51.00;;;21.30;;
4112;SDS011;2070;51.042;7.056;2023-04-08T01:25:51;68.83;;;23.87;;
4112;SDS011;2070;51.042;7.056;2023-04-08T01:28:17;52.97;;;22.90;;
4112;SDS011;2070;51.042;7.056;2023-04-08T01:30:43;62.73;;;23.30;;
4112;SDS011;2070;51.042;7.056;2023-04-08T01:33:10;57.63;;;22.83;;
4112;SDS011;2070;51.042;7.056;2023-04-08T01:35:36;47.53;;;21.10;;
4112;SDS011;2070;51.042;7.056;2023-04-08T01:38:01;54.80;;;20.17;;
4112;SDS011;2070;51.042;7.056;2023-04-08T01:40:27;58.00;;;21.70;;
4112;SDS011;2070;51.042;7.056;2023-04-08T01:42:53;58.50;;;22.30;;
4112;SDS011;2070;51.042;7.056;2023-04-08T01:45:19;58.20;;;21.77;;
4112;SDS011;2070;51.042;7.056;2023-04-08T01:47:46;51.63;;;21.50;;
4112;SDS011;2070;51.042;7.056;2023-04-08T01:50:12;56.00;;;23.40;;
4112;SDS011;2070;51.042;7.056;2023-04-08T01:52:38;56.47;;;24.60;;
4112;SDS011;2070;51.042;7.056;2023-04-08T01:55:04;62.80;;;23.07;;
4112;SDS011;2070;51.042;7.056;2023-04-08T01:57:31;54.63;;;24.23;;
4112;SDS011;2070;51.042;7.056;2023-04-08T01:59:58;61.83;;;23.43;;
4112;SDS011;2070;51.042;7.056;2023-04-08T02:02:25;77.67;;;26.43;;
4112;SDS011;2070;51.042;7.056;2023-04-08T02:04:51;49.50;;;22.67;;
4112;SDS011;2070;51.042;7.056;2023-04-08T02:07:16;58.37;;;23.60;;
4112;SDS011;2070;51.042;7.056;2023-04-08T02:09:41;57.47;;;24.43;;
4112;SDS011;2070;51.042;7.056;2023-04-08T02:12:07;59.70;;;22.83;;
4112;SDS011;2070;51.042;7.056;2023-04-08T02:14:32;55.30;;;22.20;;
4112;SDS011;2070;51.042;7.056;2023-04-08T02:17:00;54.73;;;22.10;;
4112;SDS011;2070;51.042;7.056;2023-04-08T02:19:28;54.93;;;21.27;;
4112;SDS011;2070;51.042;7.056;2023-04-08T02:21:58;59.27;;;23.30;;
4112;SDS011;2070;51.042;7.056;2023-04-08T02:24:26;55.53;;;21.97;;
4112;SDS011;2070;51.042;7.056;2023-04-08T02:26:51;55.30;;;21.63;;
4112;SDS011;2070;51.042;7.056;2023-04-08T02:29:18;58.33;;;24.40;;
4112;SDS011;2070;51.042;7.056;2023-04-08T02:31:43;56.07;;;23.00;;
4112;SDS011;2070;51.042;7.056;2023-04-08T02:34:09;53.80;;;24.10;;
4112;SDS011;2070;51.042;7.056;2023-04-08T02:36:34;58.53;;;22.63;;
4112;SDS011;2070;51.042;7.056;2023-04-08T02:38:59;59.07;;;23.60;;
4112;SDS011;2070;51.042;7.056;2023-04-08T02:41:27;52.30;;;20.13;;
4112;SDS011;2070;51.042;7.056;2023-04-08T02:43:52;66.23;;;21.17;;
4112;SDS011;2070;51.042;7.056;2023-04-08T02:46:19;58.63;;;23.10;;
4112;SDS011;2070;51.042;7.056;2023-04-08T02:48:44;61.27;;;22.53;;
4112;SDS011;2070;51.042;7.056;2023-04-08T02:51:09;61.47;;;22.83;;
4112;SDS011;2070;51.042;7.056;2023-04-08T02:53:35;54.00;;;19.63;;
4112;SDS011;2070;51.042;7.056;2023-04-08T02:56:00;60.53;;;21.80;;
4112;SDS011;2070;51.042;7.056;2023-04-08T02:58:25;58.93;;;23.07;;
4112;SDS011;2070;51.042;7.056;2023-04-08T03:00:51;63.20;;;21.57;;
4112;SDS011;2070;51.042;7.056;2023-04-08T03:03:16;61.90;;;22.13;;
4112;SDS011;2070;51.042;7.056;2023-04-08T03:05:41;59.53;;;21.33;;
4112;SDS011;2070;51.042;7.056;2023-04-08T03:08:06;52.10;;;19.87;;
4112;SDS011;2070;51.042;7.056;2023-04-08T03:10:31;65.30;;;22.70;;
4112;SDS011;2070;51.042;7.056;2023-04-08T03:12:57;48.83;;;17.40;;
4112;SDS011;2070;51.042;7.056;2023-04-08T03:15:22;56.03;;;19.80;;
4112;SDS011;2070;51.042;7.056;2023-04-08T03:17:47;83.80;;;21.67;;
4112;SDS011;2070;51.042;7.056;2023-04-08T03:20:12;59.07;;;20.47;;
4112;SDS011;2070;51.042;7.056;2023-04-08T03:22:37;54.63;;;21.37;;
4112;SDS011;2070;51.042;7.056;2023-04-08T03:25:03;55.97;;;21.23;;
4112;SDS011;2070;51.042;7.056;2023-04-08T03:27:28;68.93;;;20.73;;
4112;SDS011;2070;51.042;7.056;2023-04-08T03:29:53;59.70;;;20.90;;
4112;SDS011;2070;51.042;7.056;2023-04-08T03:32:18;52.90;;;19.90;;
4112;SDS011;2070;51.042;7.056;2023-04-08T03:34:44;60.20;;;21.40;;
4112;SDS011;2070;51.042;7.056;2023-04-08T03:37:09;50.63;;;18.33;;
4112;SDS011;2070;51.042;7.056;2023-04-08T03:39:35;61.10;;;22.47;;
4112;SDS011;2070;51.042;7.056;2023-04-08T03:42:00;58.43;;;19.03;;
4112;SDS011;2070;51.042;7.056;2023-04-08T03:44:27;54.40;;;19.60;;
4112;SDS011;2070;51.042;7.056;2023-04-08T03:46:52;71.50;;;22.00;;
4112;SDS011;2070;51.042;7.056;2023-04-08T03:49:17;57.80;;;21.77;;
4112;SDS011;2070;51.042;7.056;2023-04-08T03:51:42;57.13;;;19.47;;
4112;SDS011;2070;51.042;7.056;2023-04-08T03:54:08;60.80;;;20.50;;
4112;SDS011;2070;51.042;7.056;2023-04-08T03:56:33;67.47;;;21.00;;
4112;SDS011;2070;51.042;7.056;2023-04-08T03:58:58;56.13;;;19.87;;
4112;SDS011;2070;51.042;7.056;2023-04-08T04:01:23;59.10;;;21.87;;
4112;SDS011;2070;51.042;7.056;2023-04-08T04:03:48;51.97;;;17.50;;
4112;SDS011;2070;51.042;7.056;2023-04-08T04:06:13;57.17;;;18.77;;
4112;SDS011;2070;51.042;7.056;2023-04-08T04:08:39;57.97;;;20.23;;
4112;SDS011;2070;51.042;7.056;2023-04-08T04:11:04;50.90;;;18.87;;
4112;SDS011;2070;51.042;7.056;2023-04-08T04:13:29;63.07;;;20.73;;
4112;SDS011;2070;51.042;7.056;2023-04-08T04:15:55;57.10;;;19.47;;
4112;SDS011;2070;51.042;7.056;2023-04-08T04:18:21;52.77;;;18.30;;
4112;SDS011;2070;51.042;7.056;2023-04-08T04:20:46;49.17;;;20.27;;
4112;SDS011;2070;51.042;7.056;2023-04-08T04:23:11;53.27;;;20.20;;
4112;SDS011;2070;51.042;7.056;2023-04-08T04:25:39;59.47;;;19.70;;
4112;SDS011;2070;51.042;7.056;2023-04-08T04:28:05;43.83;;;17.87;;
4112;SDS011;2070;51.042;7.056;2023-04-08T04:30:30;47.13;;;16.47;;
4112;SDS011;2070;51.042;7.056;2023-04-08T04:32:55;43.57;;;16.57;;
4112;SDS011;2070;51.042;7.056;2023-04-08T04:35:21;53.90;;;18.63;;
4112;SDS011;2070;51.042;7.056;2023-04-08T04:37:46;54.40;;;18.90;;
4112;SDS011;2070;51.042;7.056;2023-04-08T04:40:14;56.87;;;20.30;;
4112;SDS011;2070;51.042;7.056;2023-04-08T04:42:39;54.70;;;19.40;;
4112;SDS011;2070;51.042;7.056;2023-04-08T04:45:04;46.07;;;19.03;;
4112;SDS011;2070;51.042;7.056;2023-04-08T04:47:30;52.77;;;18.60;;
4112;SDS011;2070;51.042;7.056;2023-04-08T04:49:56;47.30;;;18.33;;
4112;SDS011;2070;51.042;7.056;2023-04-08T04:52:21;52.63;;;19.07;;
4112;SDS011;2070;51.042;7.056;2023-04-08T04:54:47;62.50;;;20.50;;
4112;SDS011;2070;51.042;7.056;2023-04-08T04:57:12;58.77;;;19.33;;
4112;SDS011;2070;51.042;7.056;2023-04-08T04:59:37;61.50;;;19.30;;
4112;SDS011;2070;51.042;7.056;2023-04-08T05:02:02;59.60;;;17.47;;
4112;SDS011;2070;51.042;7.056;2023-04-08T05:04:27;58.90;;;20.73;;
4112;SDS011;2070;51.042;7.056;2023-04-08T05:06:53;57.87;;;19.03;;
4112;SDS011;2070;51.042;7.056;2023-04-08T05:09:18;51.00;;;17.37;;
4112;SDS011;2070;51.042;7.056;2023-04-08T05:11:43;59.37;;;19.33;;
4112;SDS011;2070;51.042;7.056;2023-04-08T05:14:08;61.40;;;19.23;;
4112;SDS011;2070;51.042;7.056;2023-04-08T05:16:34;50.83;;;18.13;;
4112;SDS011;2070;51.042;7.056;2023-04-08T05:18:59;58.30;;;20.90;;
4112;SDS011;2070;51.042;7.056;2023-04-08T05:21:24;53.53;;;18.30;;
4112;SDS011;2070;51.042;7.056;2023-04-08T05:23:51;50.97;;;19.27;;
4112;SDS011;2070;51.042;7.056;2023-04-08T05:26:18;51.93;;;18.67;;
4112;SDS011;2070;51.042;7.056;2023-04-08T05:28:43;52.17;;;17.07;;
4112;SDS011;2070;51.042;7.056;2023-04-08T05:31:08;69.97;;;19.37;;
4112;SDS011;2070;51.042;7.056;2023-04-08T05:33:35;56.60;;;17.93;;
4112;SDS011;2070;51.042;7.056;2023-04-08T05:36:00;52.13;;;18.60;;
4112;SDS011;2070;51.042;7.056;2023-04-08T05:38:26;60.30;;;19.23;;
4112;SDS011;2070;51.042;7.056;2023-04-08T05:40:51;57.83;;;17.20;;
4112;SDS011;2070;51.042;7.056;2023-04-08T05:43:16;65.53;;;18.73;;
4112;SDS011;2070;51.042;7.056;2023-04-08T05:45:42;67.63;;;21.90;;
4112;SDS011;2070;51.042;7.056;2023-04-08T05:48:07;66.93;;;20.37;;
4112;SDS011;2070;51.042;7.056;2023-04-08T05:50:34;62.07;;;18.10;;
4112;SDS011;2070;51.042;7.056;2023-04-08T05:52:59;57.07;;;19.50;;
4112;SDS011;2070;51.042;7.056;2023-04-08T05:55:24;54.83;;;19.50;;
4112;SDS011;2070;51.042;7.056;2023-04-08T05:57:49;64.27;;;19.60;;
4112;SDS011;2070;51.042;7.056;2023-04-08T06:00:15;57.03;;;17.33;;
4112;SDS011;2070;51.042;7.056;2023-04-08T06:02:40;54.57;;;19.80;;
4112;SDS011;2070;51.042;7.056;2023-04-08T06:05:06;56.93;;;18.87;;
4112;SDS011;2070;51.042;7.056;2023-04-08T06:07:31;70.13;;;20.50;;
4112;SDS011;2070;51.042;7.056;2023-04-08T06:09:56;48.50;;;19.13;;
4112;SDS011;2070;51.042;7.056;2023-04-08T06:12:22;51.53;;;18.37;;
4112;SDS011;2070;51.042;7.056;2023-04-08T06:14:47;62.07;;;17.47;;
4112;SDS011;2070;51.042;7.056;2023-04-08T06:17:12;53.63;;;19.73;;
4112;SDS011;2070;51.042;7.056;2023-04-08T06:19:37;60.93;;;19.77;;
4112;SDS011;2070;51.042;7.056;2023-04-08T06:22:02;62.10;;;20.93;;
4112;SDS011;2070;51.042;7.056;2023-04-08T06:24:28;57.43;;;19.30;;
4112;SDS011;2070;51.042;7.056;2023-04-08T06:26:54;56.73;;;19.50;;
4112;SDS011;2070;51.042;7.056;2023-04-08T06:29:20;60.63;;;19.80;;
4112;SDS011;2070;51.042;7.056;2023-04-08T06:31:45;58.80;;;20.33;;
4112;SDS011;2070;51.042;7.056;2023-04-08T06:34:11;54.57;;;19.30;;
4112;SDS011;2070;51.042;7.056;2023-04-08T06:36:36;46.27;;;17.70;;
4112;SDS011;2070;51.042;7.056;2023-04-08T06:39:01;46.93;;;19.27;;
4112;SDS011;2070;51.042;7.056;2023-04-08T06:41:27;49.30;;;20.10;;
4112;SDS011;2070;51.042;7.056;2023-04-08T06:43:52;68.63;;;22.03;;
4112;SDS011;2070;51.042;7.056;2023-04-08T06:46:17;51.27;;;17.60;;
4112;SDS011;2070;51.042;7.056;2023-04-08T06:48:43;49.30;;;18.97;;
4112;SDS011;2070;51.042;7.056;2023-04-08T06:51:08;40.40;;;17.30;;
4112;SDS011;2070;51.042;7.056;2023-04-08T06:53:33;48.17;;;18.50;;
4112;SDS011;2070;51.042;7.056;2023-04-08T06:55:58;54.27;;;17.23;;
4112;SDS011;2070;51.042;7.056;2023-04-08T06:58:24;47.03;;;16.73;;
4112;SDS011;2070;51.042;7.056;2023-04-08T07:00:49;45.27;;;19.67;;
4112;SDS011;2070;51.042;7.056;2023-04-08T07:03:15;42.90;;;16.50;;
4112;SDS011;2070;51.042;7.056;2023-04-08T07:05:40;48.57;;;18.70;;
4112;SDS011;2070;51.042;7.056;2023-04-08T07:08:06;48.97;;;17.33;;
4112;SDS011;2070;51.042;7.056;2023-04-08T07:10:31;48.50;;;19.77;;
4112;SDS011;2070;51.042;7.056;2023-04-08T07:12:56;66.67;;;21.03;;
4112;SDS011;2070;51.042;7.056;2023-04-08T07:15:22;46.60;;;18.73;;
4112;SDS011;2070;51.042;7.056;2023-04-08T07:17:47;73.43;;;21.00;;
4112;SDS011;2070;51.042;7.056;2023-04-08T07:20:12;57.70;;;19.57;;
4112;SDS011;2070;51.042;7.056;2023-04-08T07:22:38;51.97;;;18.37;;
4112;SDS011;2070;51.042;7.056;2023-04-08T07:25:03;47.83;;;20.57;;
4112;SDS011;2070;51.042;7.056;2023-04-08T07:27:29;41.67;;;17.80;;
4112;SDS011;2070;51.042;7.056;2023-04-08T07:29:54;41.03;;;17.23;;
4112;SDS011;2070;51.042;7.056;2023-04-08T07:32:20;48.77;;;21.23;;
4112;SDS011;2070;51.042;7.056;2023-04-08T07:34:45;50.40;;;18.57;;
4112;SDS011;2070;51.042;7.056;2023-04-08T07:37:11;57.23;;;19.83;;
4112;SDS011;2070;51.042;7.056;2023-04-08T07:39:36;56.90;;;21.93;;
4112;SDS011;2070;51.042;7.056;2023-04-08T07:42:02;55.97;;;21.37;;
4112;SDS011;2070;51.042;7.056;2023-04-08T07:44:27;50.53;;;19.70;;
4112;SDS011;2070;51.042;7.056;2023-04-08T07:46:52;55.47;;;23.13;;
4112;SDS011;2070;51.042;7.056;2023-04-08T07:49:17;51.93;;;20.30;;
4112;SDS011;2070;51.042;7.056;2023-04-08T07:51:42;51.20;;;19.97;;
4112;SDS011;2070;51.042;7.056;2023-04-08T07:54:08;51.00;;;21.20;;
4112;SDS011;2070;51.042;7.056;2023-04-08T07:56:35;50.03;;;18.70;;
4112;SDS011;2070;51.042;7.056;2023-04-08T07:59:04;47.60;;;20.10;;
4112;SDS011;2070;51.042;7.056;2023-04-08T08:01:29;51.00;;;20.40;;
4112;SDS011;2070;51.042;7.056;2023-04-08T08:03:55;49.97;;;21.70;;
4112;SDS011;2070;51.042;7.056;2023-04-08T08:06:20;45.77;;;20.23;;
4112;SDS011;2070;51.042;7.056;2023-04-08T08:08:46;43.17;;;21.07;;
4112;SDS011;2070;51.042;7.056;2023-04-08T08:11:11;45.00;;;19.43;;
4112;SDS011;2070;51.042;7.056;2023-04-08T08:13:36;46.67;;;20.00;;
4112;SDS011;2070;51.042;7.056;2023-04-08T08:16:01;47.07;;;20.53;;
4112;SDS011;2070;51.042;7.056;2023-04-08T08:18:27;49.93;;;20.80;;
4112;SDS011;2070;51.042;7.056;2023-04-08T08:20:52;44.37;;;20.80;;
4112;SDS011;2070;51.042;7.056;2023-04-08T08:23:17;44.93;;;19.60;;
4112;SDS011;2070;51.042;7.056;2023-04-08T08:25:42;51.90;;;19.70;;
4112;SDS011;2070;51.042;7.056;2023-04-08T08:28:08;57.87;;;20.73;;
4112;SDS011;2070;51.042;7.056;2023-04-08T08:30:33;47.60;;;20.57;;
4112;SDS011;2070;51.042;7.056;2023-04-08T08:32:58;44.60;;;18.40;;
4112;SDS011;2070;51.042;7.056;2023-04-08T08:35:24;61.63;;;22.50;;
4112;SDS011;2070;51.042;7.056;2023-04-08T08:37:49;57.00;;;22.83;;
4112;SDS011;2070;51.042;7.056;2023-04-08T08:40:15;60.77;;;23.00;;
4112;SDS011;2070;51.042;7.056;2023-04-08T08:42:40;56.07;;;22.30;;
4112;SDS011;2070;51.042;7.056;2023-04-08T08:45:07;55.07;;;20.53;;
4112;SDS011;2070;51.042;7.056;2023-04-08T08:47:32;76.63;;;25.63;;
4112;SDS011;2070;51.042;7.056;2023-04-08T08:49:57;57.93;;;22.80;;
4112;SDS011;2070;51.042;7.056;2023-04-08T08:52:22;57.97;;;21.87;;
4112;SDS011;2070;51.042;7.056;2023-04-08T08:54:48;55.03;;;22.03;;
4112;SDS011;2070;51.042;7.056;2023-04-08T08:57:20;52.83;;;21.53;;
4112;SDS011;2070;51.042;7.056;2023-04-08T08:59:45;48.00;;;20.47;;
4112;SDS011;2070;51.042;7.056;2023-04-08T09:02:27;50.03;;;21.17;;
4112;SDS011;2070;51.042;7.056;2023-04-08T09:05:00;48.97;;;23.50;;
4112;SDS011;2070;51.042;7.056;2023-04-08T09:07:26;58.37;;;24.10;;
4112;SDS011;2070;51.042;7.056;2023-04-08T09:09:52;64.13;;;24.30;;
4112;SDS011;2070;51.042;7.056;2023-04-08T09:12:18;56.37;;;25.03;;
4112;SDS011;2070;51.042;7.056;2023-04-08T09:14:43;51.40;;;24.70;;
4112;SDS011;2070;51.042;7.056;2023-04-08T09:17:08;58.03;;;23.80;;
4112;SDS011;2070;51.042;7.056;2023-04-08T09:19:33;60.50;;;24.30;;
4112;SDS011;2070;51.042;7.056;2023-04-08T09:22:09;53.47;;;23.83;;
4112;SDS011;2070;51.042;7.056;2023-04-08T09:24:34;64.77;;;25.83;;
4112;SDS011;2070;51.042;7.056;2023-04-08T09:27:01;53.93;;;24.20;;
4112;SDS011;2070;51.042;7.056;2023-04-08T09:29:26;54.60;;;23.73;;
4112;SDS011;2070;51.042;7.056;2023-04-08T09:31:55;67.40;;;25.70;;
4112;SDS011;2070;51.042;7.056;2023-04-08T09:34:20;65.93;;;25.93;;
4112;SDS011;2070;51.042;7.056;2023-04-08T09:36:47;59.67;;;24.53;;
4112;SDS011;2070;51.042;7.056;2023-04-08T09:39:15;51.70;;;22.90;;
4112;SDS011;2070;51.042;7.056;2023-04-08T09:41:41;58.97;;;26.00;;
4112;SDS011;2070;51.042;7.056;2023-04-08T09:44:07;48.10;;;22.80;;
4112;SDS011;2070;51.042;7.056;2023-04-08T09:52:14;44.00;;;21.93;;
4112;SDS011;2070;51.042;7.056;2023-04-08T09:57:19;52.30;;;23.87;;
4112;SDS011;2070;51.042;7.056;2023-04-08T09:59:51;47.57;;;21.10;;
4112;SDS011;2070;51.042;7.056;2023-04-08T10:02:18;46.90;;;21.27;;
4112;SDS011;2070;51.042;7.056;2023-04-08T10:04:48;50.53;;;23.10;;
4112;SDS011;2070;51.042;7.056;2023-04-08T10:07:16;44.37;;;22.27;;
4112;SDS011;2070;51.042;7.056;2023-04-08T10:09:43;58.23;;;21.77;;
4112;SDS011;2070;51.042;7.056;2023-04-08T10:12:08;43.37;;;20.20;;
4112;SDS011;2070;51.042;7.056;2023-04-08T10:14:33;48.53;;;20.77;;
4112;SDS011;2070;51.042;7.056;2023-04-08T10:17:41;47.57;;;21.30;;
4112;SDS011;2070;51.042;7.056;2023-04-08T10:19:47;42.53;;;20.20;;
4112;SDS011;2070;51.042;7.056;2023-04-08T10:27:38;37.63;;;17.33;;
4112;SDS011;2070;51.042;7.056;2023-04-08T10:30:11;41.67;;;19.20;;
4112;SDS011;2070;51.042;7.056;2023-04-08T10:32:49;34.50;;;16.53;;
4112;SDS011;2070;51.042;7.056;2023-04-08T10:35:15;31.17;;;16.80;;
4112;SDS011;2070;51.042;7.056;2023-04-08T10:37:40;34.10;;;17.80;;
4112;SDS011;2070;51.042;7.056;2023-04-08T10:40:05;52.83;;;18.30;;
4112;SDS011;2070;51.042;7.056;2023-04-08T10:42:31;48.70;;;19.97;;
4112;SDS011;2070;51.042;7.056;2023-04-08T10:44:58;40.63;;;19.20;;
4112;SDS011;2070;51.042;7.056;2023-04-08T10:47:26;35.80;;;18.50;;
4112;SDS011;2070;51.042;7.056;2023-04-08T10:49:52;37.53;;;17.80;;
4112;SDS011;2070;51.042;7.056;2023-04-08T10:52:17;32.80;;;17.60;;
4112;SDS011;2070;51.042;7.056;2023-04-08T10:54:45;38.27;;;18.73;;
4112;SDS011;2070;51.042;7.056;2023-04-08T10:57:12;28.63;;;15.50;;
4112;SDS011;2070;51.042;7.056;2023-04-08T10:59:37;28.07;;;15.57;;
4112;SDS011;2070;51.042;7.056;2023-04-08T11:02:03;31.80;;;16.03;;
4112;SDS011;2070;51.042;7.056;2023-04-08T11:04:29;23.57;;;15.33;;
4112;SDS011;2070;51.042;7.056;2023-04-08T11:06:54;33.00;;;15.03;;
4112;SDS011;2070;51.042;7.056;2023-04-08T11:09:19;35.70;;;15.00;;
4112;SDS011;2070;51.042;7.056;2023-04-08T11:11:44;31.30;;;16.67;;
4112;SDS011;2070;51.042;7.056;2023-04-08T11:14:10;34.13;;;16.83;;
4112;SDS011;2070;51.042;7.056;2023-04-08T11:16:36;46.10;;;15.37;;
4112;SDS011;2070;51.042;7.056;2023-04-08T11:19:02;35.10;;;16.83;;
4112;SDS011;2070;51.042;7.056;2023-04-08T11:21:28;32.03;;;16.40;;
4112;SDS011;2070;51.042;7.056;2023-04-08T11:23:54;32.20;;;17.03;;
4112;SDS011;2070;51.042;7.056;2023-04-08T11:26:20;29.83;;;15.10;;
4112;SDS011;2070;51.042;7.056;2023-04-08T11:28:45;31.40;;;15.87;;
4112;SDS011;2070;51.042;7.056;2023-04-08T11:31:13;35.00;;;16.90;;
4112;SDS011;2070;51.042;7.056;2023-04-08T11:33:43;37.43;;;16.43;;
4112;SDS011;2070;51.042;7.056;2023-04-08T11:36:08;28.23;;;16.47;;
4112;SDS011;2070;51.042;7.056;2023-04-08T11:38:37;28.83;;;15.30;;
4112;SDS011;2070;51.042;7.056;2023-04-08T11:41:03;28.10;;;13.90;;
4112;SDS011;2070;51.042;7.056;2023-04-08T11:43:28;38.50;;;15.97;;
4112;SDS011;2070;51.042;7.056;2023-04-08T11:45:54;27.63;;;14.13;;
4112;SDS011;2070;51.042;7.056;2023-04-08T11:48:19;33.80;;;13.90;;
4112;SDS011;2070;51.042;7.056;2023-04-08T11:50:44;34.07;;;13.00;;
4112;SDS011;2070;51.042;7.056;2023-04-08T11:53:16;28.73;;;14.50;;
4112;SDS011;2070;51.042;7.056;2023-04-08T11:55:42;29.80;;;14.83;;
4112;SDS011;2070;51.042;7.056;2023-04-08T11:58:07;24.73;;;13.93;;
4112;SDS011;2070;51.042;7.056;2023-04-08T12:00:32;33.33;;;15.17;;
4112;SDS011;2070;51.042;7.056;2023-04-08T12:02:58;31.73;;;15.20;;
4112;SDS011;2070;51.042;7.056;2023-04-08T12:05:23;33.67;;;14.93;;
4112;SDS011;2070;51.042;7.056;2023-04-08T12:07:48;29.93;;;14.80;;
4112;SDS011;2070;51.042;7.056;2023-04-08T12:10:13;31.97;;;15.43;;
4112;SDS011;2070;51.042;7.056;2023-04-08T12:12:39;39.87;;;15.83;;
4112;SDS011;2070;51.042;7.056;2023-04-08T12:15:04;37.97;;;15.70;;
4112;SDS011;2070;51.042;7.056;2023-04-08T12:17:30;29.67;;;15.37;;
4112;SDS011;2070;51.042;7.056;2023-04-08T12:19:55;30.47;;;15.77;;
4112;SDS011;2070;51.042;7.056;2023-04-08T12:22:21;25.67;;;13.50;;
4112;SDS011;2070;51.042;7.056;2023-04-08T12:24:46;32.43;;;15.57;;
4112;SDS011;2070;51.042;7.056;2023-04-08T12:27:11;25.33;;;13.40;;
4112;SDS011;2070;51.042;7.056;2023-04-08T12:29:36;22.30;;;12.03;;
4112;SDS011;2070;51.042;7.056;2023-04-08T12:32:02;28.13;;;11.80;;
4112;SDS011;2070;51.042;7.056;2023-04-08T12:34:28;20.40;;;10.27;;
4112;SDS011;2070;51.042;7.056;2023-04-08T12:36:53;18.37;;;9.27;;
4112;SDS011;2070;51.042;7.056;2023-04-08T12:39:19;16.93;;;9.30;;
4112;SDS011;2070;51.042;7.056;2023-04-08T12:41:45;22.17;;;10.77;;
4112;SDS011;2070;51.042;7.056;2023-04-08T12:44:10;25.90;;;10.50;;
4112;SDS011;2070;51.042;7.056;2023-04-08T12:46:35;17.97;;;10.20;;
4112;SDS011;2070;51.042;7.056;2023-04-08T12:49:00;14.53;;;8.17;;
4112;SDS011;2070;51.042;7.056;2023-04-08T12:51:26;17.90;;;8.60;;
4112;SDS011;2070;51.042;7.056;2023-04-08T12:53:51;13.67;;;8.30;;
4112;SDS011;2070;51.042;7.056;2023-04-08T12:56:16;12.27;;;6.90;;
4112;SDS011;2070;51.042;7.056;2023-04-08T12:58:41;17.83;;;7.43;;
4112;SDS011;2070;51.042;7.056;2023-04-08T13:01:06;14.83;;;6.87;;
4112;SDS011;2070;51.042;7.056;2023-04-08T13:03:32;13.00;;;7.13;;
4112;SDS011;2070;51.042;7.056;2023-04-08T13:05:58;19.27;;;7.20;;
4112;SDS011;2070;51.042;7.056;2023-04-08T13:08:24;16.63;;;7.70;;
4112;SDS011;2070;51.042;7.056;2023-04-08T13:10:49;13.67;;;7.70;;
4112;SDS011;2070;51.042;7.056;2023-04-08T13:13:14;17.60;;;6.70;;
4112;SDS011;2070;51.042;7.056;2023-04-08T13:15:39;12.30;;;7.07;;
4112;SDS011;2070;51.042;7.056;2023-04-08T13:18:04;10.20;;;6.27;;
4112;SDS011;2070;51.042;7.056;2023-04-08T13:20:30;11.67;;;6.20;;
4112;SDS011;2070;51.042;7.056;2023-04-08T13:22:55;12.83;;;6.60;;
4112;SDS011;2070;51.042;7.056;2023-04-08T13:25:20;14.73;;;6.60;;
4112;SDS011;2070;51.042;7.056;2023-04-08T13:27:45;11.67;;;6.07;;
4112;SDS011;2070;51.042;7.056;2023-04-08T13:30:11;12.10;;;5.93;;
4112;SDS011;2070;51.042;7.056;2023-04-08T13:32:36;14.17;;;6.00;;
4112;SDS011;2070;51.042;7.056;2023-04-08T13:35:01;11.07;;;5.97;;
4112;SDS011;2070;51.042;7.056;2023-04-08T13:37:27;8.53;;;5.50;;
4112;SDS011;2070;51.042;7.056;2023-04-08T13:39:52;9.73;;;5.40;;
4112;SDS011;2070;51.042;7.056;2023-04-08T13:42:18;9.70;;;5.00;;
4112;SDS011;2070;51.042;7.056;2023-04-08T13:44:43;9.53;;;5.40;;
4112;SDS011;2070;51.042;7.056;2023-04-08T13:47:08;9.03;;;4.90;;
4112;SDS011;2070;51.042;7.056;2023-04-08T13:49:33;7.33;;;4.63;;
4112;SDS011;2070;51.042;7.056;2023-04-08T13:51:58;11.00;;;5.07;;
4112;SDS011;2070;51.042;7.056;2023-04-08T13:54:23;12.43;;;4.73;;
4112;SDS011;2070;51.042;7.056;2023-04-08T13:56:49;10.33;;;5.80;;
4112;SDS011;2070;51.042;7.056;2023-04-08T13:59:14;8.20;;;4.90;;
4112;SDS011;2070;51.042;7.056;2023-04-08T14:01:39;9.67;;;4.60;;
4112;SDS011;2070;51.042;7.056;2023-04-08T14:04:05;8.07;;;5.30;;
4112;SDS011;2070;51.042;7.056;2023-04-08T14:06:30;11.60;;;5.60;;
4112;SDS011;2070;51.042;7.056;2023-04-08T14:08:56;11.87;;;4.60;;
4112;SDS011;2070;51.042;7.056;2023-04-08T14:11:21;7.57;;;4.43;;
4112;SDS011;2070;51.042;7.056;2023-04-08T14:13:46;12.50;;;6.13;;
4112;SDS011;2070;51.042;7.056;2023-04-08T14:16:11;11.40;;;5.70;;
4112;SDS011;2070;51.042;7.056;2023-04-08T14:18:37;6.17;;;5.07;;
4112;SDS011;2070;51.042;7.056;2023-04-08T14:21:02;10.87;;;5.47;;
4112;SDS011;2070;51.042;7.056;2023-04-08T14:23:28;12.43;;;6.40;;
4112;SDS011;2070;51.042;7.056;2023-04-08T14:25:53;10.03;;;5.60;;
4112;SDS011;2070;51.042;7.056;2023-04-08T14:28:18;8.17;;;5.43;;
4112;SDS011;2070;51.042;7.056;2023-04-08T14:30:43;12.00;;;6.23;;
4112;SDS011;2070;51.042;7.056;2023-04-08T14:33:08;8.10;;;5.33;;
4112;SDS011;2070;51.042;7.056;2023-04-08T14:35:34;10.70;;;5.60;;
4112;SDS011;2070;51.042;7.056;2023-04-08T14:37:59;16.93;;;6.10;;
4112;SDS011;2070;51.042;7.056;2023-04-08T14:40:24;11.27;;;6.37;;
4112;SDS011;2070;51.042;7.056;2023-04-08T14:42:50;7.33;;;5.17;;
4112;SDS011;2070;51.042;7.056;2023-04-08T14:45:15;10.23;;;6.03;;
4112;SDS011;2070;51.042;7.056;2023-04-08T14:47:40;10.63;;;6.60;;
4112;SDS011;2070;51.042;7.056;2023-04-08T14:50:06;14.40;;;6.73;;
4112;SDS011;2070;51.042;7.056;2023-04-08T14:52:31;6.50;;;5.87;;
4112;SDS011;2070;51.042;7.056;2023-04-08T14:54:56;8.03;;;6.20;;
4112;SDS011;2070;51.042;7.056;2023-04-08T14:57:21;10.37;;;5.87;;
4112;SDS011;2070;51.042;7.056;2023-04-08T14:59:47;13.33;;;7.53;;